Terminal Aerodrome Forecast
Issued by NWS

Home | Current Version | Previous Version | Text Only | Print | Product List | Glossary Off
Versions: 1 2 3 4 5 6 7 8 9 10 11 12 13 14 15 16 17 18 19

000
FTUS43 KIWX 311700
TAFSBN
TAF
KSBN 311720Z 3118/0118 22010KT P6SM SCT050 OVC100
     FM010300 25005KT 2SM -SN OVC020
     FM010700 08005KT 1SM -SN OVC008
     FM011200 07010KT 1/2SM SN FZFG VV004=

USA.gov is the U.S. government's official web portal to all federal, state and local government web resources and services.